sensor_id;sensor_type;location;lat;lon;timestamp;P1;durP1;ratioP1;P2;durP2;ratioP2
39300;SDS011;25019;42.626;23.380;2023-03-12T00:01:44;3.17;;;1.80;;
39300;SDS011;25019;42.626;23.380;2023-03-12T00:04:10;7.17;;;2.27;;
39300;SDS011;25019;42.626;23.380;2023-03-12T00:06:36;4.83;;;2.00;;
39300;SDS011;25019;42.626;23.380;2023-03-12T00:09:02;5.40;;;2.07;;
39300;SDS011;25019;42.626;23.380;2023-03-12T00:11:28;3.97;;;2.37;;
39300;SDS011;25019;42.626;23.380;2023-03-12T00:13:55;4.03;;;3.10;;
39300;SDS011;25019;42.626;23.380;2023-03-12T00:16:21;6.70;;;3.23;;
39300;SDS011;25019;42.626;23.380;2023-03-12T00:18:47;5.77;;;3.37;;
39300;SDS011;25019;42.626;23.380;2023-03-12T00:21:14;3.93;;;3.47;;
39300;SDS011;25019;42.626;23.380;2023-03-12T00:23:40;6.23;;;3.10;;
39300;SDS011;25019;42.626;23.380;2023-03-12T00:26:07;4.63;;;3.27;;
39300;SDS011;25019;42.626;23.380;2023-03-12T00:28:35;4.20;;;3.47;;
39300;SDS011;25019;42.626;23.380;2023-03-12T00:31:02;6.13;;;3.47;;
39300;SDS011;25019;42.626;23.380;2023-03-12T00:33:28;5.10;;;3.47;;
39300;SDS011;25019;42.626;23.380;2023-03-12T00:35:55;4.40;;;3.00;;
39300;SDS011;25019;42.626;23.380;2023-03-12T00:38:21;4.87;;;3.30;;
39300;SDS011;25019;42.626;23.380;2023-03-12T00:40:47;3.33;;;2.90;;
39300;SDS011;25019;42.626;23.380;2023-03-12T00:43:13;4.27;;;2.50;;
39300;SDS011;25019;42.626;23.380;2023-03-12T00:45:39;5.13;;;2.77;;
39300;SDS011;25019;42.626;23.380;2023-03-12T00:48:05;4.17;;;2.93;;
39300;SDS011;25019;42.626;23.380;2023-03-12T00:50:30;6.73;;;2.60;;
39300;SDS011;25019;42.626;23.380;2023-03-12T00:52:56;3.23;;;2.50;;
39300;SDS011;25019;42.626;23.380;2023-03-12T00:55:22;4.23;;;2.63;;
39300;SDS011;25019;42.626;23.380;2023-03-12T00:57:47;4.50;;;3.03;;
39300;SDS011;25019;42.626;23.380;2023-03-12T01:00:13;3.50;;;2.63;;
39300;SDS011;25019;42.626;23.380;2023-03-12T01:02:39;2.83;;;2.53;;
39300;SDS011;25019;42.626;23.380;2023-03-12T01:05:07;3.10;;;2.37;;
39300;SDS011;25019;42.626;23.380;2023-03-12T01:07:35;2.57;;;2.37;;
39300;SDS011;25019;42.626;23.380;2023-03-12T01:10:00;3.90;;;3.50;;
39300;SDS011;25019;42.626;23.380;2023-03-12T01:12:26;4.10;;;3.17;;
39300;SDS011;25019;42.626;23.380;2023-03-12T01:14:52;4.97;;;2.93;;
39300;SDS011;25019;42.626;23.380;2023-03-12T01:17:18;3.10;;;2.63;;
39300;SDS011;25019;42.626;23.380;2023-03-12T01:19:43;8.87;;;2.93;;
39300;SDS011;25019;42.626;23.380;2023-03-12T01:22:09;3.60;;;3.10;;
39300;SDS011;25019;42.626;23.380;2023-03-12T01:24:35;3.97;;;3.53;;
39300;SDS011;25019;42.626;23.380;2023-03-12T01:27:00;2.70;;;2.47;;
39300;SDS011;25019;42.626;23.380;2023-03-12T01:29:26;4.10;;;2.67;;
39300;SDS011;25019;42.626;23.380;2023-03-12T01:31:52;7.57;;;3.30;;
39300;SDS011;25019;42.626;23.380;2023-03-12T01:34:18;4.07;;;3.27;;
39300;SDS011;25019;42.626;23.380;2023-03-12T01:36:43;4.23;;;3.20;;
39300;SDS011;25019;42.626;23.380;2023-03-12T01:39:10;3.87;;;3.33;;
39300;SDS011;25019;42.626;23.380;2023-03-12T01:41:36;3.37;;;2.80;;
39300;SDS011;25019;42.626;23.380;2023-03-12T01:44:02;3.80;;;3.27;;
39300;SDS011;25019;42.626;23.380;2023-03-12T01:49:13;6.07;;;3.23;;
39300;SDS011;25019;42.626;23.380;2023-03-12T01:57:09;4.23;;;2.80;;
39300;SDS011;25019;42.626;23.380;2023-03-12T02:02:11;3.67;;;2.57;;
39300;SDS011;25019;42.626;23.380;2023-03-12T02:04:38;4.13;;;2.87;;
39300;SDS011;25019;42.626;23.380;2023-03-12T02:07:09;2.53;;;2.33;;
39300;SDS011;25019;42.626;23.380;2023-03-12T02:09:42;5.93;;;2.67;;
39300;SDS011;25019;42.626;23.380;2023-03-12T02:12:13;5.17;;;2.70;;
39300;SDS011;25019;42.626;23.380;2023-03-12T02:14:39;4.17;;;2.40;;
39300;SDS011;25019;42.626;23.380;2023-03-12T02:17:06;3.53;;;2.80;;
39300;SDS011;25019;42.626;23.380;2023-03-12T02:22:20;3.57;;;2.20;;
39300;SDS011;25019;42.626;23.380;2023-03-12T02:24:55;2.20;;;2.00;;
39300;SDS011;25019;42.626;23.380;2023-03-12T02:27:40;4.43;;;1.87;;
39300;SDS011;25019;42.626;23.380;2023-03-12T02:30:07;2.03;;;1.83;;
39300;SDS011;25019;42.626;23.380;2023-03-12T02:32:34;2.67;;;2.40;;
39300;SDS011;25019;42.626;23.380;2023-03-12T02:35:03;3.63;;;2.40;;
39300;SDS011;25019;42.626;23.380;2023-03-12T02:37:30;2.13;;;1.77;;
39300;SDS011;25019;42.626;23.380;2023-03-12T02:39:59;2.20;;;1.80;;
39300;SDS011;25019;42.626;23.380;2023-03-12T02:42:32;2.20;;;2.00;;
39300;SDS011;25019;42.626;23.380;2023-03-12T02:44:58;2.33;;;2.10;;
39300;SDS011;25019;42.626;23.380;2023-03-12T02:47:24;2.90;;;1.87;;
39300;SDS011;25019;42.626;23.380;2023-03-12T02:49:50;2.70;;;2.33;;
39300;SDS011;25019;42.626;23.380;2023-03-12T02:52:17;2.40;;;2.20;;
39300;SDS011;25019;42.626;23.380;2023-03-12T02:54:43;2.67;;;2.17;;
39300;SDS011;25019;42.626;23.380;2023-03-12T02:57:09;1.70;;;1.60;;
39300;SDS011;25019;42.626;23.380;2023-03-12T02:59:35;2.30;;;2.00;;
39300;SDS011;25019;42.626;23.380;2023-03-12T03:02:03;1.73;;;1.63;;
39300;SDS011;25019;42.626;23.380;2023-03-12T03:04:29;2.50;;;2.03;;
39300;SDS011;25019;42.626;23.380;2023-03-12T03:06:56;4.50;;;1.80;;
39300;SDS011;25019;42.626;23.380;2023-03-12T03:09:22;2.20;;;1.87;;
39300;SDS011;25019;42.626;23.380;2023-03-12T03:11:49;4.13;;;2.13;;
39300;SDS011;25019;42.626;23.380;2023-03-12T03:14:15;2.33;;;1.80;;
39300;SDS011;25019;42.626;23.380;2023-03-12T03:16:41;3.70;;;1.80;;
39300;SDS011;25019;42.626;23.380;2023-03-12T03:19:07;4.00;;;2.23;;
39300;SDS011;25019;42.626;23.380;2023-03-12T03:21:33;2.67;;;1.83;;
39300;SDS011;25019;42.626;23.380;2023-03-12T03:23:59;1.70;;;1.30;;
39300;SDS011;25019;42.626;23.380;2023-03-12T03:26:24;2.87;;;1.07;;
39300;SDS011;25019;42.626;23.380;2023-03-12T03:28:51;1.60;;;1.47;;
39300;SDS011;25019;42.626;23.380;2023-03-12T03:31:17;1.87;;;1.03;;
39300;SDS011;25019;42.626;23.380;2023-03-12T03:33:44;3.80;;;1.10;;
39300;SDS011;25019;42.626;23.380;2023-03-12T03:36:12;1.10;;;1.00;;
39300;SDS011;25019;42.626;23.380;2023-03-12T03:38:55;1.40;;;0.90;;
39300;SDS011;25019;42.626;23.380;2023-03-12T03:41:22;3.70;;;1.10;;
39300;SDS011;25019;42.626;23.380;2023-03-12T03:43:47;1.30;;;1.20;;
39300;SDS011;25019;42.626;23.380;2023-03-12T03:46:16;1.30;;;1.20;;
39300;SDS011;25019;42.626;23.380;2023-03-12T03:48:45;1.83;;;1.07;;
39300;SDS011;25019;42.626;23.380;2023-03-12T03:51:12;2.13;;;1.20;;
39300;SDS011;25019;42.626;23.380;2023-03-12T03:53:42;5.00;;;1.37;;
39300;SDS011;25019;42.626;23.380;2023-03-12T03:56:08;3.47;;;1.30;;
39300;SDS011;25019;42.626;23.380;2023-03-12T03:58:43;1.73;;;1.03;;
39300;SDS011;25019;42.626;23.380;2023-03-12T04:01:10;1.10;;;1.00;;
39300;SDS011;25019;42.626;23.380;2023-03-12T04:03:37;1.87;;;1.07;;
39300;SDS011;25019;42.626;23.380;2023-03-12T04:06:04;2.57;;;0.50;;
39300;SDS011;25019;42.626;23.380;2023-03-12T04:08:31;2.70;;;1.53;;
39300;SDS011;25019;42.626;23.380;2023-03-12T04:11:14;1.27;;;1.13;;
39300;SDS011;25019;42.626;23.380;2023-03-12T04:13:42;1.33;;;1.23;;
39300;SDS011;25019;42.626;23.380;2023-03-12T04:16:08;1.63;;;1.00;;
39300;SDS011;25019;42.626;23.380;2023-03-12T04:18:35;1.23;;;1.13;;
39300;SDS011;25019;42.626;23.380;2023-03-12T04:21:02;1.20;;;1.10;;
39300;SDS011;25019;42.626;23.380;2023-03-12T04:23:29;1.10;;;0.90;;
39300;SDS011;25019;42.626;23.380;2023-03-12T04:25:55;0.80;;;0.80;;
39300;SDS011;25019;42.626;23.380;2023-03-12T04:28:21;1.90;;;1.10;;
39300;SDS011;25019;42.626;23.380;2023-03-12T04:30:54;2.00;;;1.80;;
39300;SDS011;25019;42.626;23.380;2023-03-12T04:33:27;1.60;;;1.00;;
39300;SDS011;25019;42.626;23.380;2023-03-12T04:35:55;1.20;;;1.00;;
39300;SDS011;25019;42.626;23.380;2023-03-12T04:38:21;1.83;;;1.30;;
39300;SDS011;25019;42.626;23.380;2023-03-12T04:41:01;1.40;;;1.00;;
39300;SDS011;25019;42.626;23.380;2023-03-12T04:43:30;1.70;;;1.03;;
39300;SDS011;25019;42.626;23.380;2023-03-12T04:45:56;1.23;;;0.73;;
39300;SDS011;25019;42.626;23.380;2023-03-12T04:48:23;1.77;;;0.90;;
39300;SDS011;25019;42.626;23.380;2023-03-12T04:50:50;2.20;;;0.90;;
39300;SDS011;25019;42.626;23.380;2023-03-12T04:53:17;1.33;;;0.90;;
39300;SDS011;25019;42.626;23.380;2023-03-12T04:55:42;2.30;;;0.90;;
39300;SDS011;25019;42.626;23.380;2023-03-12T04:58:08;1.73;;;1.17;;
39300;SDS011;25019;42.626;23.380;2023-03-12T05:00:35;0.73;;;0.70;;
39300;SDS011;25019;42.626;23.380;2023-03-12T05:03:01;1.17;;;0.70;;
39300;SDS011;25019;42.626;23.380;2023-03-12T05:05:27;1.13;;;0.83;;
39300;SDS011;25019;42.626;23.380;2023-03-12T05:07:53;1.40;;;0.87;;
39300;SDS011;25019;42.626;23.380;2023-03-12T05:10:18;0.63;;;0.63;;
39300;SDS011;25019;42.626;23.380;2023-03-12T05:12:44;0.90;;;0.73;;
39300;SDS011;25019;42.626;23.380;2023-03-12T05:15:10;0.60;;;0.57;;
39300;SDS011;25019;42.626;23.380;2023-03-12T05:17:36;1.43;;;0.47;;
39300;SDS011;25019;42.626;23.380;2023-03-12T05:20:03;0.87;;;0.80;;
39300;SDS011;25019;42.626;23.380;2023-03-12T05:22:31;2.07;;;0.90;;
39300;SDS011;25019;42.626;23.380;2023-03-12T05:24:56;1.80;;;0.63;;
39300;SDS011;25019;42.626;23.380;2023-03-12T05:27:22;1.20;;;1.10;;
39300;SDS011;25019;42.626;23.380;2023-03-12T05:29:51;1.00;;;0.80;;
39300;SDS011;25019;42.626;23.380;2023-03-12T05:32:19;1.47;;;0.77;;
39300;SDS011;25019;42.626;23.380;2023-03-12T05:34:44;0.90;;;0.80;;
39300;SDS011;25019;42.626;23.380;2023-03-12T05:37:10;1.30;;;1.10;;
39300;SDS011;25019;42.626;23.380;2023-03-12T05:39:36;0.80;;;0.80;;
39300;SDS011;25019;42.626;23.380;2023-03-12T05:42:04;1.27;;;0.93;;
39300;SDS011;25019;42.626;23.380;2023-03-12T05:44:30;1.43;;;1.20;;
39300;SDS011;25019;42.626;23.380;2023-03-12T05:46:56;2.20;;;0.93;;
39300;SDS011;25019;42.626;23.380;2023-03-12T05:49:24;2.13;;;0.80;;
39300;SDS011;25019;42.626;23.380;2023-03-12T05:51:49;1.40;;;0.80;;
39300;SDS011;25019;42.626;23.380;2023-03-12T05:54:17;2.20;;;1.20;;
39300;SDS011;25019;42.626;23.380;2023-03-12T05:56:46;2.80;;;2.20;;
39300;SDS011;25019;42.626;23.380;2023-03-12T05:59:11;0.93;;;0.90;;
39300;SDS011;25019;42.626;23.380;2023-03-12T06:01:39;1.30;;;1.20;;
39300;SDS011;25019;42.626;23.380;2023-03-12T06:04:05;1.57;;;1.00;;
39300;SDS011;25019;42.626;23.380;2023-03-12T06:06:32;2.30;;;1.10;;
39300;SDS011;25019;42.626;23.380;2023-03-12T06:08:59;2.40;;;0.93;;
39300;SDS011;25019;42.626;23.380;2023-03-12T06:11:24;0.67;;;0.67;;
39300;SDS011;25019;42.626;23.380;2023-03-12T06:13:50;1.37;;;1.17;;
39300;SDS011;25019;42.626;23.380;2023-03-12T06:16:17;1.70;;;0.97;;
39300;SDS011;25019;42.626;23.380;2023-03-12T06:18:44;2.50;;;0.90;;
39300;SDS011;25019;42.626;23.380;2023-03-12T06:21:18;1.57;;;1.10;;
39300;SDS011;25019;42.626;23.380;2023-03-12T06:23:46;1.10;;;0.97;;
39300;SDS011;25019;42.626;23.380;2023-03-12T06:26:17;1.53;;;1.23;;
39300;SDS011;25019;42.626;23.380;2023-03-12T06:28:45;2.10;;;1.40;;
39300;SDS011;25019;42.626;23.380;2023-03-12T06:31:13;5.00;;;1.77;;
39300;SDS011;25019;42.626;23.380;2023-03-12T06:33:39;4.57;;;1.83;;
39300;SDS011;25019;42.626;23.380;2023-03-12T06:36:05;3.13;;;1.37;;
39300;SDS011;25019;42.626;23.380;2023-03-12T06:38:32;3.70;;;1.60;;
39300;SDS011;25019;42.626;23.380;2023-03-12T06:41:00;2.00;;;1.30;;
39300;SDS011;25019;42.626;23.380;2023-03-12T06:43:27;2.73;;;1.73;;
39300;SDS011;25019;42.626;23.380;2023-03-12T06:45:55;1.97;;;1.77;;
39300;SDS011;25019;42.626;23.380;2023-03-12T06:48:22;2.47;;;1.80;;
39300;SDS011;25019;42.626;23.380;2023-03-12T06:50:49;2.37;;;1.83;;
39300;SDS011;25019;42.626;23.380;2023-03-12T06:53:16;2.67;;;1.80;;
39300;SDS011;25019;42.626;23.380;2023-03-12T06:55:42;2.77;;;2.03;;
39300;SDS011;25019;42.626;23.380;2023-03-12T06:58:08;3.47;;;2.10;;
39300;SDS011;25019;42.626;23.380;2023-03-12T07:00:34;2.73;;;1.77;;
39300;SDS011;25019;42.626;23.380;2023-03-12T07:03:00;2.17;;;1.87;;
39300;SDS011;25019;42.626;23.380;2023-03-12T07:05:26;2.10;;;1.83;;
39300;SDS011;25019;42.626;23.380;2023-03-12T07:07:52;6.57;;;2.50;;
39300;SDS011;25019;42.626;23.380;2023-03-12T07:10:18;2.07;;;1.60;;
39300;SDS011;25019;42.626;23.380;2023-03-12T07:12:44;6.43;;;2.43;;
39300;SDS011;25019;42.626;23.380;2023-03-12T07:15:10;4.23;;;1.93;;
39300;SDS011;25019;42.626;23.380;2023-03-12T07:17:36;2.40;;;1.67;;
39300;SDS011;25019;42.626;23.380;2023-03-12T07:20:02;4.07;;;2.13;;
39300;SDS011;25019;42.626;23.380;2023-03-12T07:22:28;3.77;;;2.53;;
39300;SDS011;25019;42.626;23.380;2023-03-12T07:24:54;4.77;;;2.43;;
39300;SDS011;25019;42.626;23.380;2023-03-12T07:27:19;2.53;;;2.20;;
39300;SDS011;25019;42.626;23.380;2023-03-12T07:29:45;2.13;;;1.67;;
39300;SDS011;25019;42.626;23.380;2023-03-12T07:32:11;2.17;;;1.50;;
39300;SDS011;25019;42.626;23.380;2023-03-12T07:34:36;2.47;;;1.43;;
39300;SDS011;25019;42.626;23.380;2023-03-12T07:37:02;2.13;;;1.43;;
39300;SDS011;25019;42.626;23.380;2023-03-12T07:39:29;2.40;;;1.80;;
39300;SDS011;25019;42.626;23.380;2023-03-12T07:41:55;6.47;;;1.70;;
39300;SDS011;25019;42.626;23.380;2023-03-12T07:44:21;2.43;;;1.60;;
39300;SDS011;25019;42.626;23.380;2023-03-12T07:46:46;2.17;;;1.67;;
39300;SDS011;25019;42.626;23.380;2023-03-12T07:49:12;2.97;;;1.67;;
39300;SDS011;25019;42.626;23.380;2023-03-12T07:51:38;2.50;;;1.53;;
39300;SDS011;25019;42.626;23.380;2023-03-12T07:54:04;3.03;;;2.00;;
39300;SDS011;25019;42.626;23.380;2023-03-12T07:56:29;2.17;;;1.73;;
39300;SDS011;25019;42.626;23.380;2023-03-12T07:58:55;3.37;;;1.70;;
39300;SDS011;25019;42.626;23.380;2023-03-12T08:01:21;1.97;;;1.40;;
39300;SDS011;25019;42.626;23.380;2023-03-12T08:03:47;5.50;;;2.43;;
39300;SDS011;25019;42.626;23.380;2023-03-12T08:06:13;2.63;;;1.63;;
39300;SDS011;25019;42.626;23.380;2023-03-12T08:08:39;2.27;;;1.43;;
39300;SDS011;25019;42.626;23.380;2023-03-12T08:11:06;1.93;;;1.40;;
39300;SDS011;25019;42.626;23.380;2023-03-12T08:13:33;2.50;;;1.40;;
39300;SDS011;25019;42.626;23.380;2023-03-12T08:15:59;3.00;;;1.30;;
39300;SDS011;25019;42.626;23.380;2023-03-12T08:18:25;1.93;;;1.37;;
39300;SDS011;25019;42.626;23.380;2023-03-12T08:20:51;2.53;;;1.70;;
39300;SDS011;25019;42.626;23.380;2023-03-12T08:23:19;4.50;;;1.77;;
39300;SDS011;25019;42.626;23.380;2023-03-12T08:25:51;2.03;;;1.60;;
39300;SDS011;25019;42.626;23.380;2023-03-12T08:28:18;1.80;;;1.40;;
39300;SDS011;25019;42.626;23.380;2023-03-12T08:30:48;1.60;;;1.43;;
39300;SDS011;25019;42.626;23.380;2023-03-12T08:33:15;1.67;;;1.40;;
39300;SDS011;25019;42.626;23.380;2023-03-12T08:35:42;2.03;;;1.13;;
39300;SDS011;25019;42.626;23.380;2023-03-12T08:38:07;3.87;;;1.57;;
39300;SDS011;25019;42.626;23.380;2023-03-12T08:40:33;2.30;;;1.60;;
39300;SDS011;25019;42.626;23.380;2023-03-12T08:43:00;5.20;;;1.77;;
39300;SDS011;25019;42.626;23.380;2023-03-12T08:45:26;2.43;;;1.67;;
39300;SDS011;25019;42.626;23.380;2023-03-12T08:47:52;5.57;;;2.00;;
39300;SDS011;25019;42.626;23.380;2023-03-12T08:50:18;2.13;;;1.40;;
39300;SDS011;25019;42.626;23.380;2023-03-12T08:52:46;4.50;;;1.80;;
39300;SDS011;25019;42.626;23.380;2023-03-12T08:55:12;1.90;;;1.20;;
39300;SDS011;25019;42.626;23.380;2023-03-12T08:57:38;3.33;;;1.67;;
39300;SDS011;25019;42.626;23.380;2023-03-12T09:00:04;1.83;;;1.47;;
39300;SDS011;25019;42.626;23.380;2023-03-12T09:02:35;2.40;;;1.67;;
39300;SDS011;25019;42.626;23.380;2023-03-12T09:05:02;2.57;;;1.60;;
39300;SDS011;25019;42.626;23.380;2023-03-12T09:07:32;2.03;;;1.13;;
39300;SDS011;25019;42.626;23.380;2023-03-12T09:09:57;2.17;;;1.17;;
39300;SDS011;25019;42.626;23.380;2023-03-12T09:12:23;2.90;;;1.60;;
39300;SDS011;25019;42.626;23.380;2023-03-12T09:14:49;3.13;;;2.13;;
39300;SDS011;25019;42.626;23.380;2023-03-12T09:17:16;1.87;;;1.57;;
39300;SDS011;25019;42.626;23.380;2023-03-12T09:19:42;3.67;;;1.70;;
39300;SDS011;25019;42.626;23.380;2023-03-12T09:22:08;2.23;;;1.33;;
39300;SDS011;25019;42.626;23.380;2023-03-12T09:24:34;1.77;;;1.63;;
39300;SDS011;25019;42.626;23.380;2023-03-12T09:27:00;4.17;;;1.40;;
39300;SDS011;25019;42.626;23.380;2023-03-12T09:29:26;2.17;;;1.90;;
39300;SDS011;25019;42.626;23.380;2023-03-12T09:31:52;2.10;;;1.50;;
39300;SDS011;25019;42.626;23.380;2023-03-12T09:34:18;2.27;;;1.50;;
39300;SDS011;25019;42.626;23.380;2023-03-12T09:36:43;2.13;;;1.87;;
39300;SDS011;25019;42.626;23.380;2023-03-12T09:39:09;2.43;;;1.80;;
39300;SDS011;25019;42.626;23.380;2023-03-12T09:41:35;2.07;;;1.70;;
39300;SDS011;25019;42.626;23.380;2023-03-12T09:47:08;2.33;;;1.60;;
39300;SDS011;25019;42.626;23.380;2023-03-12T09:49:45;1.77;;;1.57;;
39300;SDS011;25019;42.626;23.380;2023-03-12T09:57:57;2.30;;;1.97;;
39300;SDS011;25019;42.626;23.380;2023-03-12T10:00:25;2.03;;;1.93;;
39300;SDS011;25019;42.626;23.380;2023-03-12T10:03:38;2.00;;;1.70;;
39300;SDS011;25019;42.626;23.380;2023-03-12T10:17:49;4.00;;;2.23;;
39300;SDS011;25019;42.626;23.380;2023-03-12T10:28:57;3.17;;;2.00;;
39300;SDS011;25019;42.626;23.380;2023-03-12T10:34:02;2.23;;;1.20;;
39300;SDS011;25019;42.626;23.380;2023-03-12T10:37:04;1.60;;;1.07;;
39300;SDS011;25019;42.626;23.380;2023-03-12T10:39:49;2.17;;;1.33;;
39300;SDS011;25019;42.626;23.380;2023-03-12T10:42:18;2.27;;;1.40;;
39300;SDS011;25019;42.626;23.380;2023-03-12T10:44:48;1.73;;;1.50;;
39300;SDS011;25019;42.626;23.380;2023-03-12T10:47:24;2.73;;;1.50;;
39300;SDS011;25019;42.626;23.380;2023-03-12T10:50:10;3.47;;;1.57;;
39300;SDS011;25019;42.626;23.380;2023-03-12T10:52:45;3.30;;;1.50;;
39300;SDS011;25019;42.626;23.380;2023-03-12T10:55:20;1.53;;;1.33;;
39300;SDS011;25019;42.626;23.380;2023-03-12T10:57:50;2.03;;;1.43;;
39300;SDS011;25019;42.626;23.380;2023-03-12T11:00:18;2.60;;;1.50;;
39300;SDS011;25019;42.626;23.380;2023-03-12T11:02:45;2.83;;;1.90;;
39300;SDS011;25019;42.626;23.380;2023-03-12T11:07:47;1.70;;;1.50;;
39300;SDS011;25019;42.626;23.380;2023-03-12T11:10:15;2.17;;;1.63;;
39300;SDS011;25019;42.626;23.380;2023-03-12T11:12:51;2.27;;;1.73;;
39300;SDS011;25019;42.626;23.380;2023-03-12T11:20:51;3.63;;;2.77;;
39300;SDS011;25019;42.626;23.380;2023-03-12T11:23:21;2.07;;;1.60;;
39300;SDS011;25019;42.626;23.380;2023-03-12T11:26:03;2.10;;;1.70;;
39300;SDS011;25019;42.626;23.380;2023-03-12T11:28:37;2.57;;;2.20;;
39300;SDS011;25019;42.626;23.380;2023-03-12T11:31:07;1.47;;;1.33;;
39300;SDS011;25019;42.626;23.380;2023-03-12T11:33:40;2.33;;;1.30;;
39300;SDS011;25019;42.626;23.380;2023-03-12T11:41:21;2.83;;;1.80;;
39300;SDS011;25019;42.626;23.380;2023-03-12T11:44:34;2.47;;;1.70;;
39300;SDS011;25019;42.626;23.380;2023-03-12T11:46:48;2.80;;;1.67;;
39300;SDS011;25019;42.626;23.380;2023-03-12T11:49:20;1.63;;;1.40;;
39300;SDS011;25019;42.626;23.380;2023-03-12T11:52:06;1.50;;;1.40;;
39300;SDS011;25019;42.626;23.380;2023-03-12T11:55:00;2.50;;;1.20;;
39300;SDS011;25019;42.626;23.380;2023-03-12T11:57:51;2.33;;;1.60;;
39300;SDS011;25019;42.626;23.380;2023-03-12T12:00:34;2.90;;;2.00;;
39300;SDS011;25019;42.626;23.380;2023-03-12T12:08:39;3.73;;;2.17;;
39300;SDS011;25019;42.626;23.380;2023-03-12T12:20:42;1.87;;;1.60;;
39300;SDS011;25019;42.626;23.380;2023-03-12T12:29:04;1.93;;;1.40;;
39300;SDS011;25019;42.626;23.380;2023-03-12T12:34:18;2.43;;;1.60;;
39300;SDS011;25019;42.626;23.380;2023-03-12T12:46:02;1.97;;;1.60;;
39300;SDS011;25019;42.626;23.380;2023-03-12T12:48:39;3.83;;;1.80;;
39300;SDS011;25019;42.626;23.380;2023-03-12T12:51:08;3.57;;;2.07;;
39300;SDS011;25019;42.626;23.380;2023-03-12T13:01:23;3.90;;;1.97;;
39300;SDS011;25019;42.626;23.380;2023-03-12T13:03:50;4.83;;;2.87;;
39300;SDS011;25019;42.626;23.380;2023-03-12T13:06:21;4.17;;;2.07;;
39300;SDS011;25019;42.626;23.380;2023-03-12T13:11:29;1.90;;;1.40;;
39300;SDS011;25019;42.626;23.380;2023-03-12T13:16:34;1.77;;;1.53;;
39300;SDS011;25019;42.626;23.380;2023-03-12T13:21:39;2.50;;;2.20;;
39300;SDS011;25019;42.626;23.380;2023-03-12T13:29:35;4.13;;;1.93;;
39300;SDS011;25019;42.626;23.380;2023-03-12T13:32:04;3.23;;;2.23;;
39300;SDS011;25019;42.626;23.380;2023-03-12T13:34:51;2.80;;;2.03;;
39300;SDS011;25019;42.626;23.380;2023-03-12T13:38:09;2.10;;;1.90;;
39300;SDS011;25019;42.626;23.380;2023-03-12T13:45:57;3.10;;;1.83;;
39300;SDS011;25019;42.626;23.380;2023-03-12T13:48:25;2.47;;;1.57;;
39300;SDS011;25019;42.626;23.380;2023-03-12T13:53:27;4.20;;;1.93;;
39300;SDS011;25019;42.626;23.380;2023-03-12T13:56:18;2.03;;;1.57;;
39300;SDS011;25019;42.626;23.380;2023-03-12T13:58:59;2.57;;;1.90;;
39300;SDS011;25019;42.626;23.380;2023-03-12T14:01:34;3.17;;;1.93;;
39300;SDS011;25019;42.626;23.380;2023-03-12T14:04:12;2.83;;;2.57;;
39300;SDS011;25019;42.626;23.380;2023-03-12T14:06:51;2.13;;;1.77;;
39300;SDS011;25019;42.626;23.380;2023-03-12T14:09:50;1.77;;;1.47;;
39300;SDS011;25019;42.626;23.380;2023-03-12T14:18:40;3.97;;;1.90;;
39300;SDS011;25019;42.626;23.380;2023-03-12T14:21:09;2.20;;;1.80;;
39300;SDS011;25019;42.626;23.380;2023-03-12T14:23:48;2.90;;;1.77;;
39300;SDS011;25019;42.626;23.380;2023-03-12T14:26:19;3.63;;;1.87;;
39300;SDS011;25019;42.626;23.380;2023-03-12T14:28:58;3.47;;;2.20;;
39300;SDS011;25019;42.626;23.380;2023-03-12T14:31:28;3.10;;;1.60;;
39300;SDS011;25019;42.626;23.380;2023-03-12T14:34:11;4.13;;;3.43;;
39300;SDS011;25019;42.626;23.380;2023-03-12T14:37:08;4.47;;;2.00;;
39300;SDS011;25019;42.626;23.380;2023-03-12T14:42:10;5.13;;;3.93;;
39300;SDS011;25019;42.626;23.380;2023-03-12T14:44:52;2.77;;;2.10;;
39300;SDS011;25019;42.626;23.380;2023-03-12T14:47:42;2.07;;;1.70;;
39300;SDS011;25019;42.626;23.380;2023-03-12T14:50:27;3.50;;;2.43;;
39300;SDS011;25019;42.626;23.380;2023-03-12T14:52:55;1.83;;;1.53;;
39300;SDS011;25019;42.626;23.380;2023-03-12T14:55:35;4.07;;;2.57;;
39300;SDS011;25019;42.626;23.380;2023-03-12T14:58:04;1.83;;;1.60;;
39300;SDS011;25019;42.626;23.380;2023-03-12T15:00:38;3.17;;;2.13;;
39300;SDS011;25019;42.626;23.380;2023-03-12T15:03:04;2.80;;;2.20;;
39300;SDS011;25019;42.626;23.380;2023-03-12T15:05:43;3.60;;;2.10;;
39300;SDS011;25019;42.626;23.380;2023-03-12T15:08:11;2.13;;;1.70;;
39300;SDS011;25019;42.626;23.380;2023-03-12T15:10:37;3.87;;;2.00;;
39300;SDS011;25019;42.626;23.380;2023-03-12T15:13:04;2.30;;;1.87;;
39300;SDS011;25019;42.626;23.380;2023-03-12T15:15:35;2.53;;;1.73;;
39300;SDS011;25019;42.626;23.380;2023-03-12T15:18:06;2.17;;;1.53;;
39300;SDS011;25019;42.626;23.380;2023-03-12T15:20:43;2.27;;;1.80;;
39300;SDS011;25019;42.626;23.380;2023-03-12T15:23:10;2.00;;;1.60;;
39300;SDS011;25019;42.626;23.380;2023-03-12T15:25:37;2.83;;;2.10;;
39300;SDS011;25019;42.626;23.380;2023-03-12T15:28:06;4.27;;;1.60;;
39300;SDS011;25019;42.626;23.380;2023-03-12T15:31:00;1.67;;;1.50;;
39300;SDS011;25019;42.626;23.380;2023-03-12T15:33:43;2.10;;;1.50;;
39300;SDS011;25019;42.626;23.380;2023-03-12T15:38:47;2.10;;;1.43;;
39300;SDS011;25019;42.626;23.380;2023-03-12T15:41:25;1.83;;;1.67;;
39300;SDS011;25019;42.626;23.380;2023-03-12T15:43:59;3.13;;;1.50;;
39300;SDS011;25019;42.626;23.380;2023-03-12T15:46:26;3.10;;;1.93;;
39300;SDS011;25019;42.626;23.380;2023-03-12T15:48:54;2.77;;;1.80;;
39300;SDS011;25019;42.626;23.380;2023-03-12T15:51:40;2.07;;;1.70;;
39300;SDS011;25019;42.626;23.380;2023-03-12T15:56:37;2.13;;;1.90;;
39300;SDS011;25019;42.626;23.380;2023-03-12T16:04:36;2.37;;;1.90;;
39300;SDS011;25019;42.626;23.380;2023-03-12T16:07:02;2.33;;;1.90;;
39300;SDS011;25019;42.626;23.380;2023-03-12T16:09:28;3.43;;;2.17;;
39300;SDS011;25019;42.626;23.380;2023-03-12T16:11:56;1.73;;;1.60;;
39300;SDS011;25019;42.626;23.380;2023-03-12T16:14:23;5.03;;;1.70;;
39300;SDS011;25019;42.626;23.380;2023-03-12T16:16:54;2.47;;;2.10;;
39300;SDS011;25019;42.626;23.380;2023-03-12T16:19:20;3.73;;;2.50;;
39300;SDS011;25019;42.626;23.380;2023-03-12T16:21:48;4.60;;;2.17;;
39300;SDS011;25019;42.626;23.380;2023-03-12T16:24:14;3.70;;;2.20;;
39300;SDS011;25019;42.626;23.380;2023-03-12T16:26:51;3.87;;;1.80;;
39300;SDS011;25019;42.626;23.380;2023-03-12T16:29:19;1.80;;;1.57;;
39300;SDS011;25019;42.626;23.380;2023-03-12T16:31:53;3.00;;;1.80;;
39300;SDS011;25019;42.626;23.380;2023-03-12T16:34:19;2.63;;;2.20;;
39300;SDS011;25019;42.626;23.380;2023-03-12T16:36:45;3.77;;;1.90;;
39300;SDS011;25019;42.626;23.380;2023-03-12T16:39:11;3.47;;;2.30;;
39300;SDS011;25019;42.626;23.380;2023-03-12T16:41:37;5.87;;;2.90;;
39300;SDS011;25019;42.626;23.380;2023-03-12T16:44:03;4.43;;;2.30;;
39300;SDS011;25019;42.626;23.380;2023-03-12T16:46:32;6.27;;;1.73;;
39300;SDS011;25019;42.626;23.380;2023-03-12T16:48:58;1.53;;;1.43;;
39300;SDS011;25019;42.626;23.380;2023-03-12T16:51:25;4.57;;;1.80;;
39300;SDS011;25019;42.626;23.380;2023-03-12T16:53:52;2.67;;;1.90;;
39300;SDS011;25019;42.626;23.380;2023-03-12T16:56:27;2.50;;;1.70;;
39300;SDS011;25019;42.626;23.380;2023-03-12T16:58:53;8.60;;;2.10;;
39300;SDS011;25019;42.626;23.380;2023-03-12T17:01:20;4.37;;;2.30;;
39300;SDS011;25019;42.626;23.380;2023-03-12T17:03:49;4.27;;;2.20;;
39300;SDS011;25019;42.626;23.380;2023-03-12T17:06:21;3.60;;;2.20;;